Time;durP1;ratioP1;P1;durP2;ratioP2;P2;SDS_P1;SDS_P2;PMS_P1;PMS_P2;Temp;Humidity;BMP_temperature;BMP_pressure;BME280_temperature;BME280_humidity;BME280_pressure;Samples;Min_cycle;Max_cycle;Signal;HPM_P1;HPM_P2
2023/01/04 00:01:18;;;;;;;11.75;6.47;;;4.20;99.90;;;;;;5027332;28;20182;-87
2023/01/04 00:03:43;;;;;;;8.70;5.75;;;4.20;99.90;;;;;;5003483;28;20269;-83
2023/01/04 00:06:11;;;;;;;6.90;5.17;;;4.20;99.90;;;;;;4999600;28;20298;-85
2023/01/04 00:08:37;;;;;;;19.38;6.43;;;4.20;99.90;;;;;;5019470;28;20187;-83
2023/01/04 00:11:23;;;;;;;4.65;3.67;;;4.10;99.90;;;;;;5011709;28;20214;-82
2023/01/04 00:13:51;;;;;;;9.68;4.57;;;4.20;99.90;;;;;;5000753;28;20316;-84
2023/01/04 00:16:21;;;;;;;8.18;4.90;;;4.20;99.90;;;;;;5016905;28;20205;-85
2023/01/04 00:18:48;;;;;;;9.07;5.45;;;4.30;99.90;;;;;;5005886;28;20598;-82
2023/01/04 00:21:16;;;;;;;8.30;5.45;;;4.30;99.90;;;;;;5023651;28;20174;-83
2023/01/04 00:23:44;;;;;;;7.22;3.95;;;4.30;99.90;;;;;;5021115;28;20191;-84
2023/01/04 00:26:12;;;;;;;10.35;6.20;;;4.30;99.90;;;;;;5002290;28;20209;-83
2023/01/04 00:28:38;;;;;;;8.52;6.10;;;4.20;99.90;;;;;;4998651;28;20187;-83
2023/01/04 00:31:06;;;;;;;9.33;6.37;;;4.10;99.90;;;;;;5000587;28;20260;-84
2023/01/04 00:33:31;;;;;;;10.52;5.90;;;4.10;99.90;;;;;;5000348;28;20212;-79
2023/01/04 00:36:06;;;;;;;14.00;6.63;;;4.10;99.90;;;;;;5009823;28;20217;-85
2023/01/04 00:38:32;;;;;;;12.02;7.30;;;3.90;99.90;;;;;;5007295;28;20197;-84
2023/01/04 00:40:58;;;;;;;10.75;7.00;;;3.80;99.90;;;;;;5006428;28;20178;-81
2023/01/04 00:43:24;;;;;;;13.80;8.43;;;3.90;99.90;;;;;;5024296;28;20190;-82
2023/01/04 00:45:49;;;;;;;12.87;7.73;;;3.90;99.90;;;;;;5022818;28;20437;-85
2023/01/04 00:48:15;;;;;;;10.20;5.60;;;3.90;99.90;;;;;;5018630;28;20236;-83
2023/01/04 00:50:43;;;;;;;11.30;7.23;;;3.90;99.90;;;;;;5000680;28;20234;-83
2023/01/04 00:53:10;;;;;;;7.90;6.78;;;3.90;99.90;;;;;;4998733;28;20194;-83
2023/01/04 00:55:35;;;;;;;12.25;7.32;;;3.80;99.90;;;;;;4993330;28;20193;-84
2023/01/04 00:58:01;;;;;;;13.43;8.07;;;3.80;99.90;;;;;;5017765;28;20187;-83
2023/01/04 01:00:26;;;;;;;12.37;7.93;;;3.70;99.90;;;;;;4993480;28;20190;-82
2023/01/04 01:02:52;;;;;;;19.87;8.07;;;3.80;99.90;;;;;;5009207;28;20190;-80
2023/01/04 01:05:17;;;;;;;9.23;7.10;;;3.70;99.90;;;;;;4993641;28;20198;-85
2023/01/04 01:07:43;;;;;;;8.10;6.90;;;3.70;99.90;;;;;;4996465;28;20360;-80
2023/01/04 01:10:08;;;;;;;13.50;9.43;;;3.60;99.90;;;;;;4991566;28;20182;-80
2023/01/04 01:12:34;;;;;;;10.37;7.20;;;3.60;99.90;;;;;;4992248;28;20275;-85
2023/01/04 01:14:59;;;;;;;11.60;8.30;;;3.70;99.90;;;;;;4992853;28;20763;-81
2023/01/04 01:17:25;;;;;;;10.43;6.90;;;3.70;99.90;;;;;;4995652;28;20194;-83
2023/01/04 01:19:50;;;;;;;12.03;8.67;;;3.60;99.90;;;;;;5009726;28;20187;-80
2023/01/04 01:22:16;;;;;;;9.43;7.47;;;3.60;99.90;;;;;;4998442;28;20262;-82
2023/01/04 01:24:41;;;;;;;10.60;7.07;;;3.50;99.90;;;;;;4992888;28;20193;-82
2023/01/04 01:27:07;;;;;;;12.00;7.80;;;3.50;99.90;;;;;;4994245;28;20291;-82
2023/01/04 01:29:33;;;;;;;11.80;7.10;;;3.50;99.90;;;;;;5010178;28;20677;-84
2023/01/04 01:31:58;;;;;;;13.37;7.97;;;3.40;99.90;;;;;;5015627;28;20210;-84
2023/01/04 01:34:23;;;;;;;12.53;6.83;;;3.30;99.90;;;;;;4999790;28;20297;-82
2023/01/04 01:36:49;;;;;;;8.10;6.57;;;3.30;99.90;;;;;;5000222;28;22293;-85
2023/01/04 01:39:15;;;;;;;10.00;7.00;;;3.20;99.90;;;;;;5002484;28;20194;-81
2023/01/04 01:41:41;;;;;;;7.23;5.77;;;3.20;99.90;;;;;;5002742;28;24099;-81
2023/01/04 01:44:38;;;;;;;10.87;7.40;;;3.20;99.90;;;;;;5013949;28;21099;-82
2023/01/04 01:47:04;;;;;;;18.80;9.20;;;3.20;99.90;;;;;;5003292;28;20297;-81
2023/01/04 01:49:34;;;;;;;13.23;7.33;;;3.30;99.90;;;;;;4999897;28;20270;-81
2023/01/04 01:52:07;;;;;;;11.60;7.10;;;3.20;99.90;;;;;;4997961;28;20214;-84
2023/01/04 01:54:53;;;;;;;10.80;6.88;;;3.20;99.90;;;;;;5004063;28;20214;-82
2023/01/04 01:57:23;;;;;;;11.60;6.82;;;3.20;99.90;;;;;;5003864;28;20294;-81
2023/01/04 01:59:52;;;;;;;11.20;7.30;;;3.20;99.90;;;;;;4999016;28;20611;-85
2023/01/04 02:02:17;;;;;;;11.45;7.18;;;3.20;99.90;;;;;;4998602;28;20244;-80
2023/01/04 02:04:48;;;;;;;10.93;7.03;;;3.10;99.90;;;;;;4992186;28;20178;-80
2023/01/04 02:07:18;;;;;;;8.90;6.63;;;3.10;99.90;;;;;;5003695;28;20212;-80
2023/01/04 02:09:44;;;;;;;7.95;5.43;;;3.10;99.90;;;;;;5020977;28;20178;-82
2023/01/04 02:12:13;;;;;;;8.18;6.20;;;3.20;99.90;;;;;;4987189;28;20765;-83
2023/01/04 02:14:41;;;;;;;7.80;6.18;;;3.20;99.90;;;;;;4990394;28;20182;-83
2023/01/04 02:17:26;;;;;;;12.02;7.03;;;3.10;99.90;;;;;;4987073;28;20199;-84
2023/01/04 02:20:18;;;;;;;11.52;6.20;;;3.10;99.90;;;;;;4993188;28;20261;-82
2023/01/04 02:23:21;;;;;;;9.43;6.22;;;3.10;99.90;;;;;;4993322;28;21280;-82
2023/01/04 02:25:59;;;;;;;7.82;5.03;;;3.10;99.90;;;;;;5012309;28;20264;-82
2023/01/04 02:28:53;;;;;;;11.25;6.63;;;3.10;99.90;;;;;;4995653;28;20636;-86
2023/01/04 02:31:48;;;;;;;7.57;5.00;;;3.10;99.90;;;;;;4997712;28;20260;-82
2023/01/04 02:34:26;;;;;;;7.10;5.32;;;3.10;99.90;;;;;;4993192;28;21079;-82
2023/01/04 02:37:06;;;;;;;9.45;6.47;;;3.10;99.90;;;;;;5012200;28;20221;-80
2023/01/04 02:39:47;;;;;;;7.63;5.32;;;3.10;99.90;;;;;;5008713;28;20908;-82
2023/01/04 02:44:51;;;;;;;8.52;5.90;;;3.20;99.90;;;;;;5008713;28;20260;-83
2023/01/04 02:45:20;;;;;;;14.50;7.25;;;3.20;99.90;;;;;;4993875;28;20193;-86
2023/01/04 02:50:48;;;;;;;7.50;5.55;;;3.10;99.90;;;;;;4999512;28;20307;-84
2023/01/04 02:53:18;;;;;;;9.27;6.00;;;3.00;99.90;;;;;;5015873;28;20194;-82
2023/01/04 02:56:37;;;;;;;7.18;4.70;;;3.10;99.90;;;;;;5008275;28;20220;-83
2023/01/04 02:59:07;;;;;;;7.10;5.05;;;3.20;99.90;;;;;;5010344;28;20240;-80
2023/01/04 03:08:16;;;;;;;9.40;6.72;;;3.20;99.90;;;;;;4932032;29;20812;-82
2023/01/04 03:10:52;;;;;;;10.93;7.10;;;3.10;99.90;;;;;;4929324;29;20290;-82
2023/01/04 03:13:30;;;;;;;10.23;7.15;;;3.00;99.90;;;;;;4979128;28;20196;-84
2023/01/04 03:16:15;;;;;;;8.40;5.57;;;3.00;99.90;;;;;;5019217;28;20190;-83
2023/01/04 03:18:45;;;;;;;12.05;6.15;;;3.10;99.90;;;;;;5020252;28;20237;-86
2023/01/04 03:21:14;;;;;;;9.27;5.47;;;3.10;99.90;;;;;;5029141;28;20183;-85
2023/01/04 03:35:21;;;;;;;7.68;4.78;;;3.30;99.90;;;;;;5022108;28;20288;-80
2023/01/04 03:49:44;;;;;;;5.68;4.35;;;3.60;99.90;;;;;;5006145;28;20186;-84
2023/01/04 03:52:12;;;;;;;8.00;5.32;;;3.60;99.90;;;;;;5001618;28;20221;-83
2023/01/04 03:54:40;;;;;;;4.97;4.32;;;3.60;99.90;;;;;;4999880;28;20178;-85
2023/01/04 03:57:08;;;;;;;7.95;4.43;;;3.60;99.90;;;;;;5023548;28;20213;-83
2023/01/04 03:59:41;;;;;;;7.88;4.63;;;3.70;99.90;;;;;;5005251;28;20265;-85
2023/01/04 04:02:12;;;;;;;7.43;4.65;;;3.80;99.90;;;;;;5012493;28;20241;-80
2023/01/04 04:10:07;;;;;;;6.70;3.67;;;4.00;99.90;;;;;;5002876;28;20722;-81
2023/01/04 04:12:33;;;;;;;5.53;2.70;;;4.10;99.90;;;;;;5012341;28;20281;-80
2023/01/04 04:14:58;;;;;;;4.70;3.10;;;4.20;99.90;;;;;;5005953;28;20449;-83
2023/01/04 04:17:24;;;;;;;5.67;3.47;;;4.20;99.90;;;;;;5015268;28;20225;-83
2023/01/04 04:19:49;;;;;;;3.30;2.60;;;4.30;99.90;;;;;;5004699;28;20728;-82
2023/01/04 04:22:15;;;;;;;4.00;3.00;;;4.30;99.90;;;;;;5013570;28;20174;-85
2023/01/04 04:24:40;;;;;;;4.80;2.67;;;4.40;99.90;;;;;;5005428;28;20190;-86
2023/01/04 04:27:06;;;;;;;5.20;2.73;;;4.40;99.90;;;;;;5015346;28;20715;-82
2023/01/04 04:29:31;;;;;;;4.73;3.27;;;4.40;99.90;;;;;;4999558;28;20668;-81
2023/01/04 04:31:57;;;;;;;4.63;3.33;;;4.50;99.90;;;;;;4996709;28;20217;-83
2023/01/04 04:34:22;;;;;;;5.20;3.20;;;4.50;99.90;;;;;;5003402;28;20186;-81
2023/01/04 04:36:48;;;;;;;4.73;2.80;;;4.50;99.90;;;;;;4999788;28;20202;-82
2023/01/04 04:39:13;;;;;;;4.80;3.20;;;4.50;99.90;;;;;;4998147;28;20190;-84
2023/01/04 04:41:42;;;;;;;2.70;2.50;;;4.50;99.90;;;;;;5003339;28;20259;-85
2023/01/04 04:44:13;;;;;;;4.50;2.70;;;4.50;99.90;;;;;;4987576;28;20895;-83
2023/01/04 04:46:39;;;;;;;3.03;2.55;;;4.50;99.90;;;;;;4989982;28;20206;-81
2023/01/04 04:49:05;;;;;;;4.22;3.38;;;4.50;99.90;;;;;;5019521;28;20183;-84
2023/01/04 04:51:31;;;;;;;3.70;2.67;;;4.60;99.90;;;;;;5003083;28;20194;-83
2023/01/04 04:53:56;;;;;;;8.10;2.73;;;4.60;99.90;;;;;;4998351;28;20221;-81
2023/01/04 04:56:22;;;;;;;7.17;3.63;;;4.60;99.90;;;;;;5011674;28;20328;-79
2023/01/04 04:58:48;;;;;;;5.10;3.50;;;4.50;99.90;;;;;;5007679;28;20202;-81
2023/01/04 05:01:13;;;;;;;5.13;2.87;;;4.50;99.90;;;;;;4998203;28;20286;-82
2023/01/04 05:03:39;;;;;;;4.80;3.03;;;4.50;99.90;;;;;;5003860;28;20446;-83
2023/01/04 05:06:05;;;;;;;2.47;2.27;;;4.50;99.90;;;;;;5022659;23;20252;-85
2023/01/04 05:08:30;;;;;;;3.80;2.50;;;4.50;99.90;;;;;;4990020;28;20216;-86
2023/01/04 05:10:56;;;;;;;3.80;2.30;;;;;;;;;;5000653;28;20457;-84
2023/01/04 05:13:22;;;;;;;3.10;2.13;;;4.60;99.90;;;;;;5006953;28;20221;-83
2023/01/04 05:15:51;;;;;;;2.60;2.03;;;4.70;99.90;;;;;;5004682;28;20457;-85
2023/01/04 05:18:18;;;;;;;2.17;1.88;;;4.80;99.90;;;;;;5000359;28;20190;-83
2023/01/04 05:20:44;;;;;;;5.20;1.60;;;4.70;99.90;;;;;;5002758;28;20178;-83
2023/01/04 05:23:11;;;;;;;1.90;1.73;;;4.80;99.90;;;;;;5023661;28;20202;-83
2023/01/04 05:25:37;;;;;;;2.45;1.60;;;4.80;99.90;;;;;;5022558;28;20226;-83
2023/01/04 05:28:03;;;;;;;2.33;1.33;;;4.80;99.90;;;;;;5019858;28;20190;-84
2023/01/04 05:33:13;;;;;;;1.65;1.55;;;4.90;99.90;;;;;;5001377;28;20197;-88
2023/01/04 05:35:39;;;;;;;3.00;1.57;;;5.00;99.90;;;;;;5020357;28;20198;-85
2023/01/04 05:38:04;;;;;;;6.07;1.50;;;4.90;99.90;;;;;;5007049;28;20744;-84
2023/01/04 05:40:30;;;;;;;2.93;1.80;;;5.00;99.90;;;;;;5006427;28;20203;-84
2023/01/04 05:42:56;;;;;;;4.93;2.90;;;5.00;99.90;;;;;;5009441;28;20189;-84
2023/01/04 05:45:21;;;;;;;7.30;3.20;;;5.00;99.90;;;;;;5009464;28;20206;-85
2023/01/04 05:47:51;;;;;;;1.70;1.13;;;5.00;99.90;;;;;;4995846;28;20187;-85
2023/01/04 05:50:19;;;;;;;2.10;1.70;;;5.10;99.90;;;;;;4999756;28;20467;-84
2023/01/04 05:52:45;;;;;;;3.33;1.30;;;5.10;99.90;;;;;;5005978;28;20178;-84
2023/01/04 05:55:11;;;;;;;3.38;0.88;;;5.20;99.90;;;;;;5007535;28;20194;-83
2023/01/04 05:57:36;;;;;;;1.67;1.40;;;5.30;99.90;;;;;;5008264;28;20209;-82
2023/01/04 06:00:04;;;;;;;3.33;1.20;;;5.20;99.90;;;;;;5001420;28;20974;-83
2023/01/04 06:02:30;;;;;;;1.58;1.30;;;5.40;99.90;;;;;;5003236;28;20206;-84
2023/01/04 06:04:56;;;;;;;2.03;1.67;;;5.40;99.90;;;;;;5006669;28;20224;-83
2023/01/04 06:07:22;;;;;;;2.20;1.30;;;5.40;99.90;;;;;;5008916;28;20849;-84
2023/01/04 06:09:47;;;;;;;2.40;1.35;;;5.50;99.90;;;;;;5010085;28;20565;-84
2023/01/04 06:12:13;;;;;;;2.63;1.23;;;5.60;99.90;;;;;;5008316;28;20202;-83
2023/01/04 06:14:40;;;;;;;3.47;1.93;;;5.60;99.90;;;;;;5006568;28;20644;-83
2023/01/04 06:17:06;;;;;;;1.60;1.30;;;5.60;99.90;;;;;;5005447;28;20564;-84
2023/01/04 06:19:32;;;;;;;2.60;2.17;;;5.70;99.90;;;;;;5013365;28;20182;-84
2023/01/04 06:21:58;;;;;;;1.97;1.10;;;5.70;99.90;;;;;;5027271;28;20190;-84
2023/01/04 06:24:23;;;;;;;1.57;1.47;;;5.70;99.90;;;;;;5020977;28;20986;-83
2023/01/04 06:26:49;;;;;;;1.53;1.23;;;5.70;99.90;;;;;;5004524;28;20218;-85
2023/01/04 06:29:15;;;;;;;2.60;1.73;;;5.70;99.90;;;;;;5015563;28;20197;-83
2023/01/04 06:31:41;;;;;;;1.10;1.00;;;5.70;99.90;;;;;;4997956;28;21156;-85
2023/01/04 06:34:06;;;;;;;2.07;1.53;;;5.60;99.90;;;;;;4995395;28;20186;-83
2023/01/04 06:36:32;;;;;;;3.00;1.43;;;5.80;99.90;;;;;;5015582;28;20206;-84
2023/01/04 06:38:58;;;;;;;2.03;1.07;;;5.70;99.90;;;;;;4999348;28;20198;-83
2023/01/04 06:41:24;;;;;;;2.47;1.77;;;5.80;99.90;;;;;;5011125;28;20269;-84
2023/01/04 06:43:49;;;;;;;3.83;1.10;;;5.80;99.90;;;;;;5013552;28;20225;-84
2023/01/04 06:46:15;;;;;;;1.37;1.13;;;5.80;99.90;;;;;;5015577;28;20845;-84
2023/01/04 06:48:41;;;;;;;1.10;0.97;;;5.80;99.90;;;;;;5013180;28;20190;-83
2023/01/04 06:51:06;;;;;;;0.97;0.87;;;5.80;99.90;;;;;;5013208;28;20214;-84
2023/01/04 06:53:32;;;;;;;2.60;1.60;;;5.80;99.90;;;;;;5015537;28;20703;-82
2023/01/04 06:55:57;;;;;;;3.50;1.23;;;5.80;99.90;;;;;;5021464;28;20444;-83
2023/01/04 06:58:23;;;;;;;0.80;0.73;;;5.80;99.90;;;;;;5020188;28;20179;-84
2023/01/04 07:00:52;;;;;;;2.87;1.03;;;5.80;99.90;;;;;;5019381;28;20229;-83
2023/01/04 07:03:18;;;;;;;0.65;0.65;;;5.90;99.90;;;;;;5017127;28;20205;-83
2023/01/04 07:05:44;;;;;;;2.03;1.40;;;5.80;99.90;;;;;;5019073;28;20218;-82
2023/01/04 07:08:10;;;;;;;2.40;0.90;;;5.90;99.90;;;;;;5017999;28;20406;-83
2023/01/04 07:10:36;;;;;;;2.78;1.15;;;5.90;99.90;;;;;;5015558;28;20687;-83
2023/01/04 07:13:02;;;;;;;2.83;2.40;;;5.90;99.90;;;;;;5031806;28;20182;-84
2023/01/04 07:15:28;;;;;;;1.25;0.90;;;5.90;99.90;;;;;;5031278;28;20460;-83
2023/01/04 07:17:53;;;;;;;2.90;2.00;;;5.90;99.90;;;;;;5017768;28;20179;-83
2023/01/04 07:20:19;;;;;;;1.03;0.77;;;5.90;99.90;;;;;;5016618;28;20174;-83
2023/01/04 07:22:44;;;;;;;1.60;1.10;;;5.80;99.90;;;;;;5018185;28;20258;-84
2023/01/04 07:25:10;;;;;;;3.83;1.40;;;5.80;99.90;;;;;;5016051;28;20203;-83
2023/01/04 07:27:36;;;;;;;1.77;1.10;;;5.80;99.90;;;;;;5014672;28;21208;-84
2023/01/04 07:30:01;;;;;;;2.10;1.40;;;5.90;99.90;;;;;;5016947;28;20213;-83
2023/01/04 07:32:27;;;;;;;3.30;0.83;;;5.90;99.90;;;;;;5012486;28;20222;-83
2023/01/04 07:34:52;;;;;;;4.97;1.17;;;5.90;99.90;;;;;;5017056;28;20238;-84
2023/01/04 07:37:18;;;;;;;2.00;1.27;;;5.90;99.90;;;;;;5015064;28;20572;-83
2023/01/04 07:39:43;;;;;;;3.90;1.47;;;5.90;99.90;;;;;;5018909;28;20197;-84
2023/01/04 07:42:10;;;;;;;3.13;1.50;;;5.90;99.90;;;;;;5017213;28;20187;-84
2023/01/04 07:44:35;;;;;;;2.25;1.67;;;5.90;99.90;;;;;;5028989;28;20568;-84
2023/01/04 07:47:02;;;;;;;3.40;0.93;;;5.90;99.90;;;;;;5014414;28;20194;-84
2023/01/04 07:49:27;;;;;;;3.65;1.20;;;6.00;99.90;;;;;;5027984;28;20200;-84
2023/01/04 07:51:53;;;;;;;1.03;0.93;;;6.00;99.90;;;;;;5013317;28;20269;-83
2023/01/04 07:54:18;;;;;;;3.13;0.80;;;6.00;99.90;;;;;;5013762;28;20189;-84
2023/01/04 07:56:45;;;;;;;1.07;0.80;;;6.00;99.90;;;;;;5012207;28;20207;-82
2023/01/04 07:59:13;;;;;;;2.40;1.10;;;6.10;99.90;;;;;;5016966;28;20217;-83
2023/01/04 08:01:38;;;;;;;1.95;0.98;;;6.10;99.90;;;;;;5018166;28;20221;-83
2023/01/04 08:04:05;;;;;;;2.80;1.87;;;6.10;99.90;;;;;;5022435;28;21175;-84
2023/01/04 08:06:31;;;;;;;1.45;0.80;;;6.20;99.90;;;;;;5019976;28;20210;-83
2023/01/04 08:08:58;;;;;;;2.40;0.87;;;6.20;99.90;;;;;;5020105;28;20694;-85
2023/01/04 08:11:23;;;;;;;1.77;1.02;;;6.30;99.90;;;;;;5020554;28;20190;-83
2023/01/04 08:13:49;;;;;;;2.30;1.03;;;6.30;99.90;;;;;;5017988;28;20197;-84
2023/01/04 08:16:24;;;;;;;3.67;1.77;;;6.40;99.90;;;;;;5018151;28;20733;-84
2023/01/04 08:18:54;;;;;;;1.63;0.88;;;6.40;99.90;;;;;;5021420;28;21305;-84
2023/01/04 08:21:20;;;;;;;0.80;0.77;;;6.50;99.90;;;;;;5020711;28;20201;-83
2023/01/04 08:23:45;;;;;;;1.67;0.88;;;6.50;99.90;;;;;;5034258;28;20589;-83
2023/01/04 08:26:13;;;;;;;1.63;1.20;;;6.50;99.90;;;;;;5021496;28;20183;-84
2023/01/04 08:28:38;;;;;;;1.50;1.00;;;6.50;99.90;;;;;;5026716;28;20277;-83
2023/01/04 08:31:07;;;;;;;0.60;0.60;;;6.60;99.90;;;;;;5024214;28;20218;-84
2023/01/04 08:33:34;;;;;;;1.00;0.75;;;6.60;99.90;;;;;;5023491;28;20241;-84
2023/01/04 08:36:11;;;;;;;0.75;0.70;;;6.70;99.90;;;;;;5021173;28;20206;-83
2023/01/04 08:38:37;;;;;;;1.90;1.02;;;6.80;99.90;;;;;;5018440;28;20192;-83
2023/01/04 08:41:02;;;;;;;3.28;0.70;;;6.70;99.90;;;;;;5018353;28;20214;-83
2023/01/04 08:43:28;;;;;;;0.77;0.53;;;6.80;99.90;;;;;;5018954;28;20187;-84
2023/01/04 08:45:53;;;;;;;4.13;1.00;;;6.80;99.90;;;;;;5019624;28;20214;-83
2023/01/04 08:48:19;;;;;;;2.00;1.20;;;6.80;99.90;;;;;;5019163;28;20930;-84
2023/01/04 08:50:44;;;;;;;1.70;1.07;;;6.80;99.90;;;;;;5017879;28;20212;-83
2023/01/04 08:53:10;;;;;;;1.43;0.60;;;6.90;99.90;;;;;;5031788;28;20553;-84
2023/01/04 08:55:36;;;;;;;3.93;0.97;;;6.90;99.90;;;;;;5018279;28;20225;-84
2023/01/04 08:58:02;;;;;;;0.73;0.73;;;7.00;99.90;;;;;;5018992;28;20585;-84
2023/01/04 09:00:27;;;;;;;4.03;0.65;;;7.00;99.90;;;;;;5009173;28;20278;-83
2023/01/04 09:02:53;;;;;;;7.80;0.80;;;7.00;99.90;;;;;;5017619;28;20265;-83
2023/01/04 09:05:19;;;;;;;1.77;0.80;;;7.10;99.90;;;;;;5016041;28;20578;-83
2023/01/04 09:07:44;;;;;;;2.13;0.70;;;7.20;99.90;;;;;;5015388;28;20187;-83
2023/01/04 09:10:10;;;;;;;1.50;1.10;;;7.30;99.90;;;;;;5015146;28;20217;-84
2023/01/04 09:12:36;;;;;;;2.03;1.13;;;7.30;99.90;;;;;;5031935;28;20783;-83
2023/01/04 09:15:01;;;;;;;6.83;1.27;;;7.40;99.90;;;;;;5015506;28;20194;-83
2023/01/04 09:17:27;;;;;;;2.30;1.35;;;7.40;99.90;;;;;;5018642;28;20261;-83
2023/01/04 09:19:52;;;;;;;2.90;1.10;;;7.50;99.90;;;;;;5018732;28;20201;-82
2023/01/04 09:22:18;;;;;;;2.17;1.00;;;7.50;99.90;;;;;;5032396;28;20679;-83
2023/01/04 09:24:43;;;;;;;2.17;1.30;;;7.40;99.90;;;;;;5018591;28;20221;-83
2023/01/04 09:27:10;;;;;;;2.10;1.00;;;7.50;99.90;;;;;;5016951;28;20204;-83
2023/01/04 09:29:36;;;;;;;2.97;1.15;;;7.50;99.90;;;;;;5015044;28;20179;-85
2023/01/04 09:32:01;;;;;;;0.83;0.77;;;7.50;99.90;;;;;;5018509;28;20869;-85
2023/01/04 09:34:27;;;;;;;1.80;1.40;;;7.60;99.90;;;;;;5014255;28;20175;-82
2023/01/04 09:36:52;;;;;;;4.20;0.80;;;7.60;99.90;;;;;;5017068;28;20234;-84
2023/01/04 09:39:18;;;;;;;4.77;1.30;;;7.60;99.90;;;;;;5017325;28;20206;-85
2023/01/04 09:42:02;;;;;;;0.93;0.70;;;7.60;99.90;;;;;;5015065;28;20186;-83
2023/01/04 09:44:40;;;;;;;5.65;2.67;;;7.60;99.90;;;;;;5016263;28;20178;-84
2023/01/04 09:47:14;;;;;;;2.15;0.65;;;7.60;99.90;;;;;;5017368;28;20756;-84
2023/01/04 09:49:49;;;;;;;5.95;2.30;;;7.70;99.90;;;;;;5025319;28;20181;-85
2023/01/04 09:52:43;;;;;;;1.85;0.95;;;7.80;99.90;;;;;;5030321;28;20205;-85
2023/01/04 09:55:19;;;;;;;1.20;0.70;;;7.90;99.90;;;;;;4985982;28;20210;-85
2023/01/04 09:57:52;;;;;;;2.35;1.20;;;7.90;99.90;;;;;;5017615;28;20185;-84
2023/01/04 10:00:31;;;;;;;3.60;2.45;;;8.00;99.90;;;;;;5023453;28;20245;-84
2023/01/04 10:03:14;;;;;;;3.45;2.10;;;8.10;99.90;;;;;;5020981;28;20171;-85
2023/01/04 10:05:39;;;;;;;10.80;2.35;;;8.20;99.90;;;;;;5014677;28;20202;-84
2023/01/04 10:08:17;;;;;;;8.83;2.30;;;8.30;99.90;;;;;;5020176;28;20206;-85
2023/01/04 10:11:02;;;;;;;4.03;1.80;;;8.40;99.90;;;;;;5011579;28;21020;-84
2023/01/04 10:13:49;;;;;;;1.63;0.90;;;8.40;99.90;;;;;;5017638;28;21059;-85
2023/01/04 10:16:42;;;;;;;4.05;2.05;;;8.50;99.90;;;;;;5014867;28;20197;-85
2023/01/04 10:19:35;;;;;;;6.88;2.42;;;8.50;99.90;;;;;;5013010;28;21158;-85
2023/01/04 10:22:06;;;;;;;1.30;0.88;;;8.50;99.90;;;;;;5017691;28;20181;-84
2023/01/04 10:24:43;;;;;;;2.78;1.20;;;8.50;99.90;;;;;;5017097;28;20193;-83
2023/01/04 10:27:14;;;;;;;7.55;1.80;;;8.50;99.90;;;;;;5015957;28;20249;-84
2023/01/04 10:29:44;;;;;;;1.80;1.30;;;8.60;99.90;;;;;;5016832;28;20185;-85
2023/01/04 10:32:21;;;;;;;3.25;0.65;;;8.50;99.90;;;;;;5017782;28;20233;-82
2023/01/04 10:34:47;;;;;;;2.38;1.90;;;8.70;99.90;;;;;;5012194;28;20707;-85
2023/01/04 10:37:20;;;;;;;4.85;0.70;;;8.80;99.90;;;;;;5014678;28;20186;-84
2023/01/04 10:39:50;;;;;;;4.75;1.33;;;8.90;99.90;;;;;;5012540;28;20185;-84
2023/01/04 10:42:32;;;;;;;2.67;1.52;;;9.00;99.90;;;;;;5016654;28;20179;-84
2023/01/04 10:45:04;;;;;;;7.90;1.30;;;9.10;99.90;;;;;;5018061;28;20210;-84
2023/01/04 10:47:44;;;;;;;2.03;1.00;;;9.10;99.90;;;;;;5017872;28;20186;-85
2023/01/04 10:50:19;;;;;;;5.82;1.20;;;9.10;99.90;;;;;;5013818;28;20242;-85
2023/01/04 10:52:58;;;;;;;2.33;1.58;;;9.20;99.90;;;;;;5017551;28;20232;-85
2023/01/04 10:55:41;;;;;;;1.48;0.95;;;9.20;99.90;;;;;;5012262;28;20232;-84
2023/01/04 10:58:22;;;;;;;0.90;0.77;;;9.40;99.90;;;;;;5016484;28;20178;-84
2023/01/04 11:00:59;;;;;;;1.75;0.70;;;9.40;99.90;;;;;;5016090;28;20190;-84
2023/01/04 11:03:41;;;;;;;1.80;0.65;;;9.50;99.90;;;;;;5016219;28;20189;-85
2023/01/04 11:06:19;;;;;;;1.73;1.13;;;9.50;99.90;;;;;;5015913;28;20246;-83
2023/01/04 11:08:58;;;;;;;7.57;0.70;;;9.40;99.90;;;;;;5017116;28;20194;-83
2023/01/04 11:11:26;;;;;;;0.95;0.50;;;9.50;99.90;;;;;;5035353;28;20206;-83
2023/01/04 11:13:52;;;;;;;1.45;0.70;;;9.40;99.90;;;;;;5020106;28;20240;-83
2023/01/04 11:16:18;;;;;;;2.67;0.70;;;9.40;99.90;;;;;;5020233;28;20257;-83
2023/01/04 11:18:47;;;;;;;3.70;0.70;;;9.30;99.90;;;;;;5019182;28;20429;-83
2023/01/04 11:21:17;;;;;;;1.40;0.75;;;9.30;99.90;;;;;;5016720;28;20221;-83
2023/01/04 11:23:42;;;;;;;1.40;0.90;;;9.40;99.90;;;;;;5020366;28;20581;-82
2023/01/04 11:26:14;;;;;;;1.13;0.90;;;9.40;99.90;;;;;;5019977;28;20206;-83
2023/01/04 11:28:54;;;;;;;3.92;0.80;;;9.40;99.90;;;;;;5043390;23;20229;-83
2023/01/04 11:31:47;;;;;;;2.22;0.88;;;9.40;99.90;;;;;;5021443;28;20301;-83
2023/01/04 11:34:12;;;;;;;2.15;0.73;;;9.50;99.90;;;;;;5009076;28;20167;-83
2023/01/04 11:36:43;;;;;;;2.20;0.77;;;9.50;99.90;;;;;;5010367;28;20175;-86
2023/01/04 11:39:25;;;;;;;0.77;0.70;;;9.40;99.90;;;;;;4993420;28;20203;-82
2023/01/04 11:42:04;;;;;;;2.30;1.25;;;9.40;99.90;;;;;;4991837;28;20230;-83
2023/01/04 11:44:34;;;;;;;2.17;1.50;;;9.50;99.90;;;;;;4981924;28;20175;-84
2023/01/04 11:47:18;;;;;;;10.35;3.88;;;9.50;99.90;;;;;;4991966;28;20184;-86
2023/01/04 11:49:45;;;;;;;2.40;1.70;;;9.50;99.90;;;;;;4996255;28;20183;-77
2023/01/04 11:52:30;;;;;;;2.03;1.30;;;9.50;99.90;;;;;;4997939;28;20268;-82
2023/01/04 11:55:14;;;;;;;5.32;3.28;;;9.50;99.90;;;;;;4986145;28;20187;-83
2023/01/04 11:57:40;;;;;;;4.55;2.20;;;9.50;99.90;;;;;;5000297;28;20676;-80
2023/01/04 12:00:15;;;;;;;1.50;1.17;;;9.50;99.90;;;;;;4999320;28;20190;-84
2023/01/04 12:02:41;;;;;;;1.77;1.00;;;9.60;99.90;;;;;;4989188;28;20182;-84
2023/01/04 12:05:21;;;;;;;2.97;1.00;;;9.70;99.90;;;;;;5003452;28;20190;-82
2023/01/04 12:07:47;;;;;;;2.55;1.40;;;9.70;99.90;;;;;;4976719;28;20464;-83
2023/01/04 12:10:25;;;;;;;2.30;1.20;;;9.60;99.90;;;;;;4984947;28;20188;-82
2023/01/04 12:12:52;;;;;;;2.40;1.50;;;9.70;99.90;;;;;;4982347;28;20494;-84
2023/01/04 12:15:33;;;;;;;0.88;0.82;;;9.70;99.90;;;;;;4986426;28;20250;-84
2023/01/04 12:18:10;;;;;;;9.00;4.70;;;9.70;99.90;;;;;;4986337;28;20230;-82
2023/01/04 12:20:35;;;;;;;1.27;1.00;;;9.80;99.90;;;;;;4976480;28;20184;-85
2023/01/04 12:23:01;;;;;;;2.00;1.10;;;9.80;99.90;;;;;;4977548;28;20278;-82
2023/01/04 12:25:38;;;;;;;3.90;1.90;;;9.90;99.90;;;;;;4979637;28;20183;-83
2023/01/04 12:28:04;;;;;;;4.45;3.10;;;9.90;99.90;;;;;;4986967;28;20215;-84
2023/01/04 12:30:45;;;;;;;3.10;2.40;;;9.90;99.90;;;;;;4970555;28;20200;-88
2023/01/04 12:33:29;;;;;;;4.10;2.53;;;10.00;99.90;;;;;;4990968;28;20190;-83
2023/01/04 12:36:12;;;;;;;1.50;0.60;;;10.10;99.90;;;;;;4981164;28;20187;-83
2023/01/04 12:39:27;;;;;;;0.98;0.90;;;10.20;99.90;;;;;;4982043;28;20238;-84
2023/01/04 12:41:59;;;;;;;1.35;1.02;;;10.40;99.90;;;;;;4983374;28;20183;-82
2023/01/04 12:44:42;;;;;;;2.47;1.25;;;10.40;99.90;;;;;;4983509;28;20223;-84
2023/01/04 12:50:09;;;;;;;1.27;0.77;;;10.50;99.90;;;;;;4985572;28;20253;-85
2023/01/04 12:52:42;;;;;;;1.70;0.95;;;10.60;99.90;;;;;;4984208;28;20219;-82
2023/01/04 12:55:22;;;;;;;1.13;0.70;;;10.60;99.90;;;;;;5000332;28;20243;-84
2023/01/04 12:57:48;;;;;;;1.10;0.65;;;10.60;99.90;;;;;;4987995;28;20206;-83
2023/01/04 13:00:15;;;;;;;2.03;1.40;;;10.60;99.90;;;;;;4977286;28;20549;-83
2023/01/04 13:02:51;;;;;;;1.70;1.20;;;10.70;99.90;;;;;;4986631;28;20192;-79
2023/01/04 13:05:17;;;;;;;0.77;0.57;;;10.80;99.90;;;;;;4991955;28;20255;-80
2023/01/04 13:07:52;;;;;;;2.13;1.80;;;10.80;99.90;;;;;;4987998;28;20689;-86
2023/01/04 13:10:19;;;;;;;0.55;0.47;;;10.90;99.90;;;;;;5008366;28;20203;-82
2023/01/04 13:13:17;;;;;;;0.98;0.55;;;11.00;99.90;;;;;;4976650;28;20245;-86
2023/01/04 13:16:03;;;;;;;1.10;0.43;;;11.10;99.90;;;;;;4984741;28;20184;-84
2023/01/04 13:18:44;;;;;;;1.05;0.75;;;11.20;99.90;;;;;;4984665;28;20204;-83
2023/01/04 13:21:22;;;;;;;2.38;1.08;;;11.30;99.90;;;;;;4994396;28;21305;-85
2023/01/04 13:23:55;;;;;;;1.45;1.15;;;11.20;99.90;;;;;;4999465;28;20215;-80
2023/01/04 13:26:47;;;;;;;1.27;1.08;;;11.30;99.90;;;;;;4977343;28;20277;-81
2023/01/04 13:29:39;;;;;;;2.17;0.82;;;11.00;99.90;;;;;;4974516;28;20194;-81
2023/01/04 13:32:21;;;;;;;1.63;0.82;;;10.90;99.90;;;;;;4982374;28;20215;-83
2023/01/04 13:34:53;;;;;;;1.48;0.60;;;10.80;99.90;;;;;;4967156;28;20226;-85
2023/01/04 13:37:26;;;;;;;0.60;0.60;;;10.80;99.90;;;;;;4982998;28;20192;-84
2023/01/04 13:40:17;;;;;;;0.95;0.70;;;10.90;99.90;;;;;;4979116;28;20202;-85
2023/01/04 13:42:49;;;;;;;1.88;0.93;;;11.10;99.90;;;;;;4981020;28;20180;-84
2023/01/04 13:45:34;;;;;;;0.75;0.73;;;11.10;99.90;;;;;;4973355;28;20245;-87
2023/01/04 13:48:03;;;;;;;0.95;0.85;;;11.10;99.90;;;;;;4982826;28;20207;-85
2023/01/04 13:50:38;;;;;;;1.48;0.50;;;11.10;99.90;;;;;;4981143;28;20233;-83
2023/01/04 13:53:04;;;;;;;0.60;0.57;;;11.20;99.90;;;;;;4981907;28;20183;-83
2023/01/04 13:55:32;;;;;;;1.23;0.80;;;11.20;99.90;;;;;;4971610;28;20262;-81
2023/01/04 13:58:05;;;;;;;6.28;1.10;;;11.30;99.90;;;;;;4988833;28;20218;-84